sensor_id;sensor_type;location;lat;lon;timestamp;temperature;humidity
45643;DHT22;31358;46.008;11.144;2024-03-23T00:53:44;10.80;99.90
45643;DHT22;31358;46.008;11.144;2024-03-23T00:56:10;10.70;99.90
45643;DHT22;31358;46.008;11.144;2024-03-23T00:58:35;10.80;99.90
45643;DHT22;31358;46.008;11.144;2024-03-23T01:01:01;10.80;99.90
45643;DHT22;31358;46.008;11.144;2024-03-23T01:03:29;10.70;99.90
45643;DHT22;31358;46.008;11.144;2024-03-23T01:05:58;10.70;99.90
45643;DHT22;31358;46.008;11.144;2024-03-23T01:08:24;10.80;99.90
45643;DHT22;31358;46.008;11.144;2024-03-23T01:10:56;10.80;99.90
45643;DHT22;31358;46.008;11.144;2024-03-23T01:13:22;10.80;99.90
45643;DHT22;31358;46.008;11.144;2024-03-23T01:15:50;10.70;99.90
45643;DHT22;31358;46.008;11.144;2024-03-23T01:18:15;10.60;99.90
45643;DHT22;31358;46.008;11.144;2024-03-23T01:20:41;10.60;99.90
45643;DHT22;31358;46.008;11.144;2024-03-23T01:23:06;10.60;99.90
45643;DHT22;31358;46.008;11.144;2024-03-23T01:25:32;10.50;99.90
45643;DHT22;31358;46.008;11.144;2024-03-23T01:27:57;10.60;99.90
45643;DHT22;31358;46.008;11.144;2024-03-23T01:30:23;10.50;99.90
45643;DHT22;31358;46.008;11.144;2024-03-23T01:32:49;10.50;99.90
45643;DHT22;31358;46.008;11.144;2024-03-23T01:35:14;10.50;99.90
45643;DHT22;31358;46.008;11.144;2024-03-23T01:37:40;10.60;99.90
45643;DHT22;31358;46.008;11.144;2024-03-23T01:40:06;10.50;99.90
45643;DHT22;31358;46.008;11.144;2024-03-23T01:42:31;10.50;99.90
45643;DHT22;31358;46.008;11.144;2024-03-23T01:44:57;10.50;99.90
45643;DHT22;31358;46.008;11.144;2024-03-23T01:47:23;10.50;99.90
45643;DHT22;31358;46.008;11.144;2024-03-23T01:49:48;10.40;99.90
45643;DHT22;31358;46.008;11.144;2024-03-23T01:52:14;10.40;99.90
45643;DHT22;31358;46.008;11.144;2024-03-23T01:54:40;10.20;99.90
45643;DHT22;31358;46.008;11.144;2024-03-23T01:57:06;10.20;99.90
45643;DHT22;31358;46.008;11.144;2024-03-23T01:59:32;10.20;99.90
45643;DHT22;31358;46.008;11.144;2024-03-23T02:01:58;10.20;99.90
45643;DHT22;31358;46.008;11.144;2024-03-23T02:04:23;10.30;99.90
45643;DHT22;31358;46.008;11.144;2024-03-23T02:06:49;10.30;99.90
45643;DHT22;31358;46.008;11.144;2024-03-23T02:09:15;10.20;99.90
45643;DHT22;31358;46.008;11.144;2024-03-23T02:11:40;10.10;99.90
45643;DHT22;31358;46.008;11.144;2024-03-23T02:14:06;10.30;99.90
45643;DHT22;31358;46.008;11.144;2024-03-23T02:16:33;10.40;99.90
45643;DHT22;31358;46.008;11.144;2024-03-23T02:18:58;10.30;99.90
45643;DHT22;31358;46.008;11.144;2024-03-23T02:21:24;10.30;99.90
45643;DHT22;31358;46.008;11.144;2024-03-23T02:23:50;10.20;99.90
45643;DHT22;31358;46.008;11.144;2024-03-23T02:26:15;10.20;99.90
45643;DHT22;31358;46.008;11.144;2024-03-23T02:28:42;10.20;99.90
45643;DHT22;31358;46.008;11.144;2024-03-23T02:31:07;10.10;99.90
45643;DHT22;31358;46.008;11.144;2024-03-23T02:33:33;9.90;99.90
45643;DHT22;31358;46.008;11.144;2024-03-23T02:36:00;9.80;99.90
45643;DHT22;31358;46.008;11.144;2024-03-23T02:38:25;10.00;99.90
45643;DHT22;31358;46.008;11.144;2024-03-23T02:40:51;9.90;99.90
45643;DHT22;31358;46.008;11.144;2024-03-23T02:43:16;9.90;99.90
45643;DHT22;31358;46.008;11.144;2024-03-23T02:45:42;10.00;99.90
45643;DHT22;31358;46.008;11.144;2024-03-23T02:48:07;10.10;99.90
45643;DHT22;31358;46.008;11.144;2024-03-23T02:50:33;10.10;99.90
45643;DHT22;31358;46.008;11.144;2024-03-23T02:52:59;10.00;99.90
45643;DHT22;31358;46.008;11.144;2024-03-23T02:55:24;9.90;99.90
45643;DHT22;31358;46.008;11.144;2024-03-23T02:57:50;9.70;99.90
45643;DHT22;31358;46.008;11.144;2024-03-23T03:00:15;9.50;99.90
45643;DHT22;31358;46.008;11.144;2024-03-23T03:02:41;9.50;99.90
45643;DHT22;31358;46.008;11.144;2024-03-23T03:05:07;9.50;99.90
45643;DHT22;31358;46.008;11.144;2024-03-23T03:07:34;9.70;99.90
45643;DHT22;31358;46.008;11.144;2024-03-23T03:09:59;9.70;99.90
45643;DHT22;31358;46.008;11.144;2024-03-23T03:12:25;9.60;99.90
45643;DHT22;31358;46.008;11.144;2024-03-23T03:14:51;9.70;99.90
45643;DHT22;31358;46.008;11.144;2024-03-23T03:17:16;9.70;99.90
45643;DHT22;31358;46.008;11.144;2024-03-23T03:19:42;9.60;99.90
45643;DHT22;31358;46.008;11.144;2024-03-23T03:22:07;9.60;99.90
45643;DHT22;31358;46.008;11.144;2024-03-23T03:24:33;9.60;99.90
45643;DHT22;31358;46.008;11.144;2024-03-23T03:26:59;9.60;99.90
45643;DHT22;31358;46.008;11.144;2024-03-23T03:29:25;9.60;99.90
45643;DHT22;31358;46.008;11.144;2024-03-23T03:31:51;9.70;99.90
45643;DHT22;31358;46.008;11.144;2024-03-23T03:34:16;10.00;99.90
45643;DHT22;31358;46.008;11.144;2024-03-23T03:36:42;10.30;99.90
45643;DHT22;31358;46.008;11.144;2024-03-23T03:39:07;10.30;99.90
45643;DHT22;31358;46.008;11.144;2024-03-23T03:41:33;10.10;99.90
45643;DHT22;31358;46.008;11.144;2024-03-23T03:43:58;10.00;99.90
45643;DHT22;31358;46.008;11.144;2024-03-23T03:46:27;9.90;99.90
45643;DHT22;31358;46.008;11.144;2024-03-23T03:48:54;9.90;99.90
45643;DHT22;31358;46.008;11.144;2024-03-23T03:51:20;9.90;99.90
45643;DHT22;31358;46.008;11.144;2024-03-23T03:53:46;9.70;99.90
45643;DHT22;31358;46.008;11.144;2024-03-23T03:56:12;9.40;99.90
45643;DHT22;31358;46.008;11.144;2024-03-23T03:58:37;9.10;99.90
45643;DHT22;31358;46.008;11.144;2024-03-23T04:01:03;9.10;99.90
45643;DHT22;31358;46.008;11.144;2024-03-23T04:03:29;9.40;99.90
45643;DHT22;31358;46.008;11.144;2024-03-23T04:05:55;9.40;99.90
45643;DHT22;31358;46.008;11.144;2024-03-23T04:08:21;9.50;99.90
45643;DHT22;31358;46.008;11.144;2024-03-23T04:10:47;9.80;99.90
45643;DHT22;31358;46.008;11.144;2024-03-23T04:13:13;10.00;99.90
45643;DHT22;31358;46.008;11.144;2024-03-23T04:15:39;9.90;99.90
45643;DHT22;31358;46.008;11.144;2024-03-23T04:18:05;9.90;99.90
45643;DHT22;31358;46.008;11.144;2024-03-23T04:20:30;9.70;99.90
45643;DHT22;31358;46.008;11.144;2024-03-23T04:22:57;9.70;99.90
45643;DHT22;31358;46.008;11.144;2024-03-23T04:25:23;9.60;99.90
45643;DHT22;31358;46.008;11.144;2024-03-23T04:27:49;9.50;99.90
45643;DHT22;31358;46.008;11.144;2024-03-23T04:30:14;9.30;99.90
45643;DHT22;31358;46.008;11.144;2024-03-23T04:32:40;9.20;99.90
45643;DHT22;31358;46.008;11.144;2024-03-23T04:35:07;9.30;99.90
45643;DHT22;31358;46.008;11.144;2024-03-23T04:37:37;9.30;99.90
45643;DHT22;31358;46.008;11.144;2024-03-23T04:40:03;9.40;99.90
45643;DHT22;31358;46.008;11.144;2024-03-23T04:42:29;9.50;99.90
45643;DHT22;31358;46.008;11.144;2024-03-23T04:44:55;9.60;99.90
45643;DHT22;31358;46.008;11.144;2024-03-23T04:47:21;9.50;99.90
45643;DHT22;31358;46.008;11.144;2024-03-23T04:49:46;9.30;99.90
45643;DHT22;31358;46.008;11.144;2024-03-23T04:52:12;9.30;99.90
45643;DHT22;31358;46.008;11.144;2024-03-23T04:54:38;9.50;99.90
45643;DHT22;31358;46.008;11.144;2024-03-23T04:57:05;9.30;99.90
45643;DHT22;31358;46.008;11.144;2024-03-23T04:59:31;9.40;99.90
45643;DHT22;31358;46.008;11.144;2024-03-23T05:01:57;9.40;99.90
45643;DHT22;31358;46.008;11.144;2024-03-23T05:04:23;8.90;99.90
45643;DHT22;31358;46.008;11.144;2024-03-23T05:06:48;9.00;99.90
45643;DHT22;31358;46.008;11.144;2024-03-23T05:09:14;9.20;99.90
45643;DHT22;31358;46.008;11.144;2024-03-23T05:11:40;9.10;99.90
45643;DHT22;31358;46.008;11.144;2024-03-23T05:14:07;9.10;99.90
45643;DHT22;31358;46.008;11.144;2024-03-23T05:16:32;9.00;99.90
45643;DHT22;31358;46.008;11.144;2024-03-23T05:18:58;8.90;99.90
45643;DHT22;31358;46.008;11.144;2024-03-23T05:21:24;9.00;99.90
45643;DHT22;31358;46.008;11.144;2024-03-23T05:23:49;9.20;99.90
45643;DHT22;31358;46.008;11.144;2024-03-23T05:26:17;9.30;99.90
45643;DHT22;31358;46.008;11.144;2024-03-23T05:28:42;9.30;99.90
45643;DHT22;31358;46.008;11.144;2024-03-23T05:31:09;9.20;99.90
45643;DHT22;31358;46.008;11.144;2024-03-23T05:33:36;9.30;99.90
45643;DHT22;31358;46.008;11.144;2024-03-23T05:36:03;9.30;99.90
45643;DHT22;31358;46.008;11.144;2024-03-23T05:38:29;9.40;99.90
45643;DHT22;31358;46.008;11.144;2024-03-23T05:40:59;9.10;99.90
45643;DHT22;31358;46.008;11.144;2024-03-23T05:43:26;9.20;99.90
45643;DHT22;31358;46.008;11.144;2024-03-23T05:45:58;9.20;99.90
45643;DHT22;31358;46.008;11.144;2024-03-23T05:48:25;9.30;99.90
45643;DHT22;31358;46.008;11.144;2024-03-23T05:50:52;9.30;99.90
45643;DHT22;31358;46.008;11.144;2024-03-23T05:53:18;9.30;99.90
45643;DHT22;31358;46.008;11.144;2024-03-23T05:55:46;9.30;99.90
45643;DHT22;31358;46.008;11.144;2024-03-23T05:58:14;9.30;99.90
45643;DHT22;31358;46.008;11.144;2024-03-23T06:00:40;9.30;99.90
45643;DHT22;31358;46.008;11.144;2024-03-23T06:03:05;9.30;99.90
45643;DHT22;31358;46.008;11.144;2024-03-23T06:05:31;9.40;99.90
45643;DHT22;31358;46.008;11.144;2024-03-23T06:07:57;9.40;99.90
45643;DHT22;31358;46.008;11.144;2024-03-23T06:10:23;9.40;99.90
45643;DHT22;31358;46.008;11.144;2024-03-23T06:12:48;9.40;99.90
45643;DHT22;31358;46.008;11.144;2024-03-23T06:15:15;9.50;99.90
45643;DHT22;31358;46.008;11.144;2024-03-23T06:17:41;9.50;99.90
45643;DHT22;31358;46.008;11.144;2024-03-23T06:20:07;9.30;99.90
45643;DHT22;31358;46.008;11.144;2024-03-23T06:22:33;9.30;99.90
45643;DHT22;31358;46.008;11.144;2024-03-23T06:24:59;9.30;99.90
45643;DHT22;31358;46.008;11.144;2024-03-23T06:27:24;9.20;99.90
45643;DHT22;31358;46.008;11.144;2024-03-23T06:29:50;9.20;99.90
45643;DHT22;31358;46.008;11.144;2024-03-23T06:32:15;9.30;99.90
45643;DHT22;31358;46.008;11.144;2024-03-23T06:34:41;9.30;99.90
45643;DHT22;31358;46.008;11.144;2024-03-23T06:37:07;9.30;99.90
45643;DHT22;31358;46.008;11.144;2024-03-23T06:39:35;9.20;99.90
45643;DHT22;31358;46.008;11.144;2024-03-23T06:42:01;9.20;99.90
45643;DHT22;31358;46.008;11.144;2024-03-23T06:44:26;9.20;99.90
45643;DHT22;31358;46.008;11.144;2024-03-23T06:46:52;9.10;99.90
45643;DHT22;31358;46.008;11.144;2024-03-23T06:49:17;9.20;99.90
45643;DHT22;31358;46.008;11.144;2024-03-23T06:51:45;9.20;99.90
45643;DHT22;31358;46.008;11.144;2024-03-23T06:54:10;9.30;99.90
45643;DHT22;31358;46.008;11.144;2024-03-23T06:56:36;9.40;99.90
45643;DHT22;31358;46.008;11.144;2024-03-23T06:59:01;9.60;99.90
45643;DHT22;31358;46.008;11.144;2024-03-23T07:01:27;9.60;99.90
45643;DHT22;31358;46.008;11.144;2024-03-23T07:03:54;9.70;99.90
45643;DHT22;31358;46.008;11.144;2024-03-23T07:06:19;9.80;99.90
45643;DHT22;31358;46.008;11.144;2024-03-23T07:08:45;9.90;99.90
45643;DHT22;31358;46.008;11.144;2024-03-23T07:11:11;10.00;99.90
45643;DHT22;31358;46.008;11.144;2024-03-23T07:13:36;10.00;99.90
45643;DHT22;31358;46.008;11.144;2024-03-23T07:16:02;10.10;99.90
45643;DHT22;31358;46.008;11.144;2024-03-23T07:18:27;10.20;99.90
45643;DHT22;31358;46.008;11.144;2024-03-23T07:20:57;10.20;99.90
45643;DHT22;31358;46.008;11.144;2024-03-23T07:23:24;10.10;99.90
45643;DHT22;31358;46.008;11.144;2024-03-23T07:26:05;10.10;99.90
45643;DHT22;31358;46.008;11.144;2024-03-23T07:28:31;10.10;99.90
45643;DHT22;31358;46.008;11.144;2024-03-23T07:33:30;10.30;99.90
45643;DHT22;31358;46.008;11.144;2024-03-23T07:35:56;10.30;99.90
45643;DHT22;31358;46.008;11.144;2024-03-23T07:38:23;10.10;99.90
45643;DHT22;31358;46.008;11.144;2024-03-23T07:40:48;10.10;99.90
45643;DHT22;31358;46.008;11.144;2024-03-23T07:43:22;10.20;99.90
45643;DHT22;31358;46.008;11.144;2024-03-23T07:45:54;10.20;99.90
45643;DHT22;31358;46.008;11.144;2024-03-23T07:48:21;10.30;99.90
45643;DHT22;31358;46.008;11.144;2024-03-23T07:51:08;10.30;99.90
45643;DHT22;31358;46.008;11.144;2024-03-23T07:53:35;10.50;99.90
45643;DHT22;31358;46.008;11.144;2024-03-23T07:56:01;10.50;99.90
45643;DHT22;31358;46.008;11.144;2024-03-23T07:58:27;10.70;99.90
45643;DHT22;31358;46.008;11.144;2024-03-23T08:00:54;10.80;99.90
45643;DHT22;31358;46.008;11.144;2024-03-23T08:03:19;10.80;99.90
45643;DHT22;31358;46.008;11.144;2024-03-23T08:05:45;10.90;99.90
45643;DHT22;31358;46.008;11.144;2024-03-23T08:08:11;11.00;99.90
45643;DHT22;31358;46.008;11.144;2024-03-23T08:10:57;11.10;99.90
45643;DHT22;31358;46.008;11.144;2024-03-23T08:13:22;11.20;99.90
45643;DHT22;31358;46.008;11.144;2024-03-23T08:15:48;11.20;99.90
45643;DHT22;31358;46.008;11.144;2024-03-23T08:18:14;11.20;99.90
45643;DHT22;31358;46.008;11.144;2024-03-23T08:20:41;11.30;99.90
45643;DHT22;31358;46.008;11.144;2024-03-23T08:23:07;11.50;99.90
45643;DHT22;31358;46.008;11.144;2024-03-23T08:25:33;11.70;99.90
45643;DHT22;31358;46.008;11.144;2024-03-23T08:27:59;11.70;99.90
45643;DHT22;31358;46.008;11.144;2024-03-23T08:30:25;11.70;99.90
45643;DHT22;31358;46.008;11.144;2024-03-23T08:32:51;11.70;99.90
45643;DHT22;31358;46.008;11.144;2024-03-23T08:35:16;11.70;99.90
45643;DHT22;31358;46.008;11.144;2024-03-23T08:37:42;11.70;99.90
45643;DHT22;31358;46.008;11.144;2024-03-23T08:40:08;11.80;99.90
45643;DHT22;31358;46.008;11.144;2024-03-23T08:42:34;11.90;99.90
45643;DHT22;31358;46.008;11.144;2024-03-23T08:45:00;12.00;99.90
45643;DHT22;31358;46.008;11.144;2024-03-23T08:47:25;12.00;99.90
45643;DHT22;31358;46.008;11.144;2024-03-23T08:49:51;12.10;99.90
45643;DHT22;31358;46.008;11.144;2024-03-23T08:52:17;12.20;99.90
45643;DHT22;31358;46.008;11.144;2024-03-23T08:54:43;12.20;99.90
45643;DHT22;31358;46.008;11.144;2024-03-23T08:57:09;12.50;99.90
45643;DHT22;31358;46.008;11.144;2024-03-23T08:59:34;12.80;99.90
45643;DHT22;31358;46.008;11.144;2024-03-23T09:02:00;13.10;99.90
45643;DHT22;31358;46.008;11.144;2024-03-23T09:04:26;13.10;99.90
45643;DHT22;31358;46.008;11.144;2024-03-23T09:06:51;13.10;99.90
45643;DHT22;31358;46.008;11.144;2024-03-23T09:09:17;13.20;99.90
45643;DHT22;31358;46.008;11.144;2024-03-23T09:11:43;13.20;99.90
45643;DHT22;31358;46.008;11.144;2024-03-23T09:14:09;13.20;99.80
45643;DHT22;31358;46.008;11.144;2024-03-23T09:16:34;13.50;99.80
45643;DHT22;31358;46.008;11.144;2024-03-23T09:19:00;13.50;99.50
45643;DHT22;31358;46.008;11.144;2024-03-23T09:21:26;13.50;99.60
45643;DHT22;31358;46.008;11.144;2024-03-23T09:23:52;15.40;98.90
45643;DHT22;31358;46.008;11.144;2024-03-23T09:26:17;18.50;95.60
45643;DHT22;31358;46.008;11.144;2024-03-23T09:28:43;19.70;93.70
45643;DHT22;31358;46.008;11.144;2024-03-23T09:31:09;20.30;92.70
45643;DHT22;31358;46.008;11.144;2024-03-23T09:33:39;20.70;91.40
45643;DHT22;31358;46.008;11.144;2024-03-23T09:36:06;20.60;92.40
45643;DHT22;31358;46.008;11.144;2024-03-23T09:38:33;20.30;91.80
45643;DHT22;31358;46.008;11.144;2024-03-23T09:40:58;19.70;91.80
45643;DHT22;31358;46.008;11.144;2024-03-23T09:43:28;18.50;92.50
45643;DHT22;31358;46.008;11.144;2024-03-23T09:45:53;16.90;93.20
45643;DHT22;31358;46.008;11.144;2024-03-23T09:48:19;16.00;94.40
45643;DHT22;31358;46.008;11.144;2024-03-23T09:50:46;15.50;95.20
45643;DHT22;31358;46.008;11.144;2024-03-23T09:53:14;15.20;95.80
45643;DHT22;31358;46.008;11.144;2024-03-23T09:55:42;15.10;96.20
45643;DHT22;31358;46.008;11.144;2024-03-23T09:58:08;15.10;96.40
45643;DHT22;31358;46.008;11.144;2024-03-23T10:00:37;15.30;97.00
45643;DHT22;31358;46.008;11.144;2024-03-23T10:03:04;15.30;96.80
45643;DHT22;31358;46.008;11.144;2024-03-23T10:05:32;15.50;96.60
45643;DHT22;31358;46.008;11.144;2024-03-23T10:10:43;15.70;96.70
45643;DHT22;31358;46.008;11.144;2024-03-23T10:13:09;15.50;97.20
45643;DHT22;31358;46.008;11.144;2024-03-23T10:15:36;15.40;96.60
45643;DHT22;31358;46.008;11.144;2024-03-23T10:18:18;15.30;97.00
45643;DHT22;31358;46.008;11.144;2024-03-23T10:21:31;15.20;96.80
45643;DHT22;31358;46.008;11.144;2024-03-23T10:23:34;15.20;96.90
45643;DHT22;31358;46.008;11.144;2024-03-23T10:26:19;15.30;96.80
45643;DHT22;31358;46.008;11.144;2024-03-23T10:28:56;15.40;97.50
45643;DHT22;31358;46.008;11.144;2024-03-23T10:31:24;15.60;97.50
45643;DHT22;31358;46.008;11.144;2024-03-23T10:33:49;15.60;97.20
45643;DHT22;31358;46.008;11.144;2024-03-23T10:36:15;15.80;97.50
45643;DHT22;31358;46.008;11.144;2024-03-23T10:38:42;15.70;96.30
45643;DHT22;31358;46.008;11.144;2024-03-23T10:41:09;16.00;97.30
45643;DHT22;31358;46.008;11.144;2024-03-23T10:43:36;16.30;97.60
45643;DHT22;31358;46.008;11.144;2024-03-23T10:46:03;16.60;97.10
45643;DHT22;31358;46.008;11.144;2024-03-23T10:48:29;16.60;97.10
45643;DHT22;31358;46.008;11.144;2024-03-23T10:50:54;16.50;96.30
45643;DHT22;31358;46.008;11.144;2024-03-23T10:53:26;16.50;96.20
45643;DHT22;31358;46.008;11.144;2024-03-23T10:55:53;16.70;95.80
45643;DHT22;31358;46.008;11.144;2024-03-23T10:58:24;16.80;96.00
45643;DHT22;31358;46.008;11.144;2024-03-23T11:00:52;17.00;96.00
45643;DHT22;31358;46.008;11.144;2024-03-23T11:03:39;17.00;95.50
45643;DHT22;31358;46.008;11.144;2024-03-23T11:06:06;17.10;95.80
45643;DHT22;31358;46.008;11.144;2024-03-23T11:08:33;17.50;95.60
45643;DHT22;31358;46.008;11.144;2024-03-23T11:11:22;17.40;94.70
45643;DHT22;31358;46.008;11.144;2024-03-23T11:13:50;16.90;94.40
45643;DHT22;31358;46.008;11.144;2024-03-23T11:16:24;16.90;94.50
45643;DHT22;31358;46.008;11.144;2024-03-23T11:18:50;16.90;94.60
45643;DHT22;31358;46.008;11.144;2024-03-23T11:21:54;17.20;94.80
45643;DHT22;31358;46.008;11.144;2024-03-23T11:24:20;17.20;94.10
45643;DHT22;31358;46.008;11.144;2024-03-23T11:26:47;17.60;94.90
45643;DHT22;31358;46.008;11.144;2024-03-23T11:29:17;18.20;94.60
45643;DHT22;31358;46.008;11.144;2024-03-23T11:31:49;18.50;94.20
45643;DHT22;31358;46.008;11.144;2024-03-23T11:34:15;18.70;93.10
45643;DHT22;31358;46.008;11.144;2024-03-23T11:36:42;18.70;93.10
45643;DHT22;31358;46.008;11.144;2024-03-23T11:39:17;18.60;92.30
45643;DHT22;31358;46.008;11.144;2024-03-23T11:41:48;18.70;92.50
45643;DHT22;31358;46.008;11.144;2024-03-23T11:44:27;18.80;92.30
45643;DHT22;31358;46.008;11.144;2024-03-23T11:46:52;18.80;92.80
45643;DHT22;31358;46.008;11.144;2024-03-23T11:49:26;18.60;92.40
45643;DHT22;31358;46.008;11.144;2024-03-23T11:51:53;18.40;92.80
45643;DHT22;31358;46.008;11.144;2024-03-23T11:54:22;18.70;92.50
45643;DHT22;31358;46.008;11.144;2024-03-23T11:56:59;19.00;93.00
45643;DHT22;31358;46.008;11.144;2024-03-23T11:59:35;19.10;92.70
45643;DHT22;31358;46.008;11.144;2024-03-23T12:02:12;19.10;92.20
45643;DHT22;31358;46.008;11.144;2024-03-23T12:04:41;19.30;92.30
45643;DHT22;31358;46.008;11.144;2024-03-23T12:07:11;19.50;92.20
45643;DHT22;31358;46.008;11.144;2024-03-23T12:09:37;19.80;91.90
45643;DHT22;31358;46.008;11.144;2024-03-23T12:14:43;19.60;91.60
45643;DHT22;31358;46.008;11.144;2024-03-23T12:17:14;19.80;91.80
45643;DHT22;31358;46.008;11.144;2024-03-23T12:19:40;19.90;91.70
45643;DHT22;31358;46.008;11.144;2024-03-23T12:22:07;20.10;91.20
45643;DHT22;31358;46.008;11.144;2024-03-23T12:24:34;20.20;91.90
45643;DHT22;31358;46.008;11.144;2024-03-23T12:27:04;20.20;91.30
45643;DHT22;31358;46.008;11.144;2024-03-23T12:29:32;20.30;91.20
45643;DHT22;31358;46.008;11.144;2024-03-23T12:32:02;20.30;91.00
45643;DHT22;31358;46.008;11.144;2024-03-23T12:34:28;20.30;91.00
45643;DHT22;31358;46.008;11.144;2024-03-23T12:36:55;20.10;90.50
45643;DHT22;31358;46.008;11.144;2024-03-23T12:39:21;20.10;91.30
45643;DHT22;31358;46.008;11.144;2024-03-23T12:41:48;20.10;91.20
45643;DHT22;31358;46.008;11.144;2024-03-23T12:44:14;20.20;90.90
45643;DHT22;31358;46.008;11.144;2024-03-23T12:46:43;19.80;90.80
45643;DHT22;31358;46.008;11.144;2024-03-23T12:49:09;19.40;90.70
45643;DHT22;31358;46.008;11.144;2024-03-23T12:51:35;18.90;91.10
45643;DHT22;31358;46.008;11.144;2024-03-23T12:54:01;18.60;91.20
45643;DHT22;31358;46.008;11.144;2024-03-23T12:56:27;18.60;91.90
45643;DHT22;31358;46.008;11.144;2024-03-23T12:58:58;18.60;91.80
45643;DHT22;31358;46.008;11.144;2024-03-23T13:01:24;18.60;91.70
45643;DHT22;31358;46.008;11.144;2024-03-23T13:03:50;18.70;91.70
45643;DHT22;31358;46.008;11.144;2024-03-23T13:06:17;18.80;91.90
45643;DHT22;31358;46.008;11.144;2024-03-23T13:08:47;18.80;91.50
45643;DHT22;31358;46.008;11.144;2024-03-23T13:11:13;18.50;92.00
45643;DHT22;31358;46.008;11.144;2024-03-23T13:13:39;18.30;92.40
45643;DHT22;31358;46.008;11.144;2024-03-23T13:16:06;18.00;92.40
45643;DHT22;31358;46.008;11.144;2024-03-23T13:18:32;17.90;92.40
45643;DHT22;31358;46.008;11.144;2024-03-23T13:20:58;17.80;92.70
45643;DHT22;31358;46.008;11.144;2024-03-23T13:23:24;17.80;92.70
45643;DHT22;31358;46.008;11.144;2024-03-23T13:25:56;17.70;92.60
45643;DHT22;31358;46.008;11.144;2024-03-23T13:28:22;17.70;92.80
45643;DHT22;31358;46.008;11.144;2024-03-23T13:30:55;17.70;92.50
45643;DHT22;31358;46.008;11.144;2024-03-23T13:33:21;17.70;92.70
45643;DHT22;31358;46.008;11.144;2024-03-23T13:35:51;17.60;92.70
45643;DHT22;31358;46.008;11.144;2024-03-23T13:38:17;17.50;93.10
45643;DHT22;31358;46.008;11.144;2024-03-23T13:40:58;17.50;93.00
45643;DHT22;31358;46.008;11.144;2024-03-23T13:43:25;17.70;93.90
45643;DHT22;31358;46.008;11.144;2024-03-23T13:45:58;18.00;93.80
45643;DHT22;31358;46.008;11.144;2024-03-23T13:48:28;18.30;94.40
45643;DHT22;31358;46.008;11.144;2024-03-23T13:51:02;18.30;94.50
45643;DHT22;31358;46.008;11.144;2024-03-23T13:53:28;18.40;93.30
45643;DHT22;31358;46.008;11.144;2024-03-23T13:55:54;18.20;93.20
45643;DHT22;31358;46.008;11.144;2024-03-23T13:58:20;18.30;94.10
45643;DHT22;31358;46.008;11.144;2024-03-23T14:00:46;17.80;93.30
45643;DHT22;31358;46.008;11.144;2024-03-23T14:03:12;17.60;93.60
45643;DHT22;31358;46.008;11.144;2024-03-23T14:05:39;17.50;93.60
45643;DHT22;31358;46.008;11.144;2024-03-23T14:08:08;17.40;94.00
45643;DHT22;31358;46.008;11.144;2024-03-23T14:10:34;17.30;94.30
45643;DHT22;31358;46.008;11.144;2024-03-23T14:13:03;17.30;94.10
45643;DHT22;31358;46.008;11.144;2024-03-23T14:15:29;17.30;93.90
45643;DHT22;31358;46.008;11.144;2024-03-23T14:17:58;17.30;94.00
45643;DHT22;31358;46.008;11.144;2024-03-23T14:20:24;17.20;94.60
45643;DHT22;31358;46.008;11.144;2024-03-23T14:22:50;17.20;94.30
45643;DHT22;31358;46.008;11.144;2024-03-23T14:25:16;17.20;94.30
45643;DHT22;31358;46.008;11.144;2024-03-23T14:27:44;17.00;94.90
45643;DHT22;31358;46.008;11.144;2024-03-23T14:30:10;16.90;94.90
45643;DHT22;31358;46.008;11.144;2024-03-23T14:32:37;16.80;95.00
45643;DHT22;31358;46.008;11.144;2024-03-23T14:35:03;16.80;95.20
45643;DHT22;31358;46.008;11.144;2024-03-23T14:37:29;16.80;95.50
45643;DHT22;31358;46.008;11.144;2024-03-23T14:39:56;16.90;95.70
45643;DHT22;31358;46.008;11.144;2024-03-23T14:42:22;16.50;98.00
45643;DHT22;31358;46.008;11.144;2024-03-23T14:44:47;16.50;97.30
45643;DHT22;31358;46.008;11.144;2024-03-23T14:47:13;16.30;97.30
45643;DHT22;31358;46.008;11.144;2024-03-23T14:49:39;16.30;97.50
45643;DHT22;31358;46.008;11.144;2024-03-23T14:52:04;16.30;97.30
45643;DHT22;31358;46.008;11.144;2024-03-23T14:54:30;16.10;97.80
45643;DHT22;31358;46.008;11.144;2024-03-23T14:56:56;16.00;98.40
45643;DHT22;31358;46.008;11.144;2024-03-23T14:59:24;16.00;99.00
45643;DHT22;31358;46.008;11.144;2024-03-23T15:01:49;16.00;99.40
45643;DHT22;31358;46.008;11.144;2024-03-23T15:04:15;16.10;98.70
45643;DHT22;31358;46.008;11.144;2024-03-23T15:06:40;15.90;99.80
45643;DHT22;31358;46.008;11.144;2024-03-23T15:09:07;15.80;99.90
45643;DHT22;31358;46.008;11.144;2024-03-23T15:11:37;15.90;99.90
45643;DHT22;31358;46.008;11.144;2024-03-23T15:14:02;15.70;99.90
45643;DHT22;31358;46.008;11.144;2024-03-23T15:16:28;15.70;99.90
45643;DHT22;31358;46.008;11.144;2024-03-23T15:18:54;15.90;99.90
45643;DHT22;31358;46.008;11.144;2024-03-23T15:21:19;15.90;99.50
45643;DHT22;31358;46.008;11.144;2024-03-23T15:23:47;16.00;99.30
45643;DHT22;31358;46.008;11.144;2024-03-23T15:26:13;15.90;98.80
45643;DHT22;31358;46.008;11.144;2024-03-23T15:28:38;15.90;99.20
45643;DHT22;31358;46.008;11.144;2024-03-23T15:31:09;15.90;99.00
45643;DHT22;31358;46.008;11.144;2024-03-23T15:33:35;16.00;98.80
45643;DHT22;31358;46.008;11.144;2024-03-23T15:36:02;15.90;98.60
45643;DHT22;31358;46.008;11.144;2024-03-23T15:38:28;15.80;98.60
45643;DHT22;31358;46.008;11.144;2024-03-23T15:40:55;15.90;99.10
45643;DHT22;31358;46.008;11.144;2024-03-23T15:43:20;15.80;99.50
45643;DHT22;31358;46.008;11.144;2024-03-23T15:46:00;15.70;99.00
45643;DHT22;31358;46.008;11.144;2024-03-23T15:48:29;15.80;98.60
45643;DHT22;31358;46.008;11.144;2024-03-23T15:50:57;15.90;98.90
45643;DHT22;31358;46.008;11.144;2024-03-23T15:53:26;16.00;98.40
45643;DHT22;31358;46.008;11.144;2024-03-23T15:55:59;16.00;98.30
45643;DHT22;31358;46.008;11.144;2024-03-23T15:58:25;16.00;98.60
45643;DHT22;31358;46.008;11.144;2024-03-23T16:01:01;16.00;98.40
45643;DHT22;31358;46.008;11.144;2024-03-23T16:03:28;16.00;98.10
45643;DHT22;31358;46.008;11.144;2024-03-23T16:05:56;15.90;98.50
45643;DHT22;31358;46.008;11.144;2024-03-23T16:08:23;16.00;98.00
45643;DHT22;31358;46.008;11.144;2024-03-23T16:10:49;15.90;98.40
45643;DHT22;31358;46.008;11.144;2024-03-23T16:13:15;15.80;99.30
45643;DHT22;31358;46.008;11.144;2024-03-23T16:15:41;15.60;99.70
45643;DHT22;31358;46.008;11.144;2024-03-23T16:18:07;15.30;99.90
45643;DHT22;31358;46.008;11.144;2024-03-23T16:20:38;15.00;99.90